sensor_id;sensor_type;location;lat;lon;timestamp;temperature;humidity
10175;DHT22;18221;38.704;0.152;2023-05-24T00:12:30;15.00;99.90
10175;DHT22;18221;38.704;0.152;2023-05-24T00:15:00;15.00;99.90
10175;DHT22;18221;38.704;0.152;2023-05-24T00:17:28;15.00;99.90
10175;DHT22;18221;38.704;0.152;2023-05-24T00:19:56;15.00;99.90
10175;DHT22;18221;38.704;0.152;2023-05-24T00:22:25;15.00;99.90
10175;DHT22;18221;38.704;0.152;2023-05-24T00:24:54;15.00;99.90
10175;DHT22;18221;38.704;0.152;2023-05-24T00:27:22;15.00;99.90
10175;DHT22;18221;38.704;0.152;2023-05-24T00:29:50;15.00;99.90
10175;DHT22;18221;38.704;0.152;2023-05-24T00:32:19;15.10;99.90
10175;DHT22;18221;38.704;0.152;2023-05-24T00:34:47;15.00;99.90
10175;DHT22;18221;38.704;0.152;2023-05-24T00:37:15;15.00;99.90
10175;DHT22;18221;38.704;0.152;2023-05-24T00:39:44;15.00;99.90
10175;DHT22;18221;38.704;0.152;2023-05-24T00:42:12;12.90;99.90
10175;DHT22;18221;38.704;0.152;2023-05-24T00:44:40;15.00;99.90
10175;DHT22;18221;38.704;0.152;2023-05-24T00:47:08;15.00;99.90
10175;DHT22;18221;38.704;0.152;2023-05-24T00:49:38;15.00;99.90
10175;DHT22;18221;38.704;0.152;2023-05-24T00:52:06;15.00;99.90
10175;DHT22;18221;38.704;0.152;2023-05-24T00:54:35;15.10;99.90
10175;DHT22;18221;38.704;0.152;2023-05-24T00:57:05;15.10;99.90
10175;DHT22;18221;38.704;0.152;2023-05-24T00:59:33;15.10;99.90
10175;DHT22;18221;38.704;0.152;2023-05-24T01:02:02;15.10;99.90
10175;DHT22;18221;38.704;0.152;2023-05-24T01:04:30;15.10;99.90
10175;DHT22;18221;38.704;0.152;2023-05-24T01:07:07;15.00;99.90
10175;DHT22;18221;38.704;0.152;2023-05-24T01:09:51;15.10;99.90
10175;DHT22;18221;38.704;0.152;2023-05-24T01:12:34;15.10;99.90
10175;DHT22;18221;38.704;0.152;2023-05-24T01:15:22;15.10;99.90
10175;DHT22;18221;38.704;0.152;2023-05-24T01:18:01;15.10;99.90
10175;DHT22;18221;38.704;0.152;2023-05-24T01:20:33;15.10;99.90
10175;DHT22;18221;38.704;0.152;2023-05-24T01:23:24;15.10;99.90
10175;DHT22;18221;38.704;0.152;2023-05-24T01:26:27;15.00;99.90
10175;DHT22;18221;38.704;0.152;2023-05-24T01:29:05;15.00;99.90
10175;DHT22;18221;38.704;0.152;2023-05-24T01:31:35;15.00;99.90
10175;DHT22;18221;38.704;0.152;2023-05-24T01:34:03;15.00;99.90
10175;DHT22;18221;38.704;0.152;2023-05-24T01:36:32;15.00;99.90
10175;DHT22;18221;38.704;0.152;2023-05-24T01:39:01;15.00;99.90
10175;DHT22;18221;38.704;0.152;2023-05-24T01:41:37;15.00;99.90
10175;DHT22;18221;38.704;0.152;2023-05-24T01:44:14;15.00;99.90
10175;DHT22;18221;38.704;0.152;2023-05-24T01:46:59;15.00;99.90
10175;DHT22;18221;38.704;0.152;2023-05-24T01:49:39;15.00;99.90
10175;DHT22;18221;38.704;0.152;2023-05-24T01:52:14;14.90;99.90
10175;DHT22;18221;38.704;0.152;2023-05-24T01:54:47;14.90;99.90
10175;DHT22;18221;38.704;0.152;2023-05-24T01:57:19;15.00;99.90
10175;DHT22;18221;38.704;0.152;2023-05-24T01:59:51;15.00;99.90
10175;DHT22;18221;38.704;0.152;2023-05-24T02:02:21;15.00;99.90
10175;DHT22;18221;38.704;0.152;2023-05-24T02:04:49;15.00;99.90
10175;DHT22;18221;38.704;0.152;2023-05-24T02:07:17;14.90;99.90
10175;DHT22;18221;38.704;0.152;2023-05-24T02:09:45;15.00;99.90
10175;DHT22;18221;38.704;0.152;2023-05-24T02:12:13;14.90;99.90
10175;DHT22;18221;38.704;0.152;2023-05-24T02:14:41;14.90;99.90
10175;DHT22;18221;38.704;0.152;2023-05-24T02:17:11;14.90;99.90
10175;DHT22;18221;38.704;0.152;2023-05-24T02:19:39;14.90;99.90
10175;DHT22;18221;38.704;0.152;2023-05-24T02:22:07;15.00;99.90
10175;DHT22;18221;38.704;0.152;2023-05-24T02:24:35;15.00;99.90
10175;DHT22;18221;38.704;0.152;2023-05-24T02:27:05;15.00;99.90
10175;DHT22;18221;38.704;0.152;2023-05-24T02:29:33;15.00;99.90
10175;DHT22;18221;38.704;0.152;2023-05-24T02:32:02;15.00;99.90
10175;DHT22;18221;38.704;0.152;2023-05-24T02:34:32;15.00;99.90
10175;DHT22;18221;38.704;0.152;2023-05-24T02:37:00;15.10;99.90
10175;DHT22;18221;38.704;0.152;2023-05-24T02:39:29;15.00;99.90
10175;DHT22;18221;38.704;0.152;2023-05-24T02:41:57;15.10;99.90
10175;DHT22;18221;38.704;0.152;2023-05-24T02:44:25;15.00;99.90
10175;DHT22;18221;38.704;0.152;2023-05-24T02:46:53;15.00;99.90
10175;DHT22;18221;38.704;0.152;2023-05-24T02:49:21;14.90;99.90
10175;DHT22;18221;38.704;0.152;2023-05-24T02:51:50;15.00;99.90
10175;DHT22;18221;38.704;0.152;2023-05-24T02:54:19;14.90;99.90
10175;DHT22;18221;38.704;0.152;2023-05-24T02:56:47;15.00;99.90
10175;DHT22;18221;38.704;0.152;2023-05-24T02:59:15;15.00;99.90
10175;DHT22;18221;38.704;0.152;2023-05-24T03:01:43;15.00;99.90
10175;DHT22;18221;38.704;0.152;2023-05-24T03:04:11;14.90;99.90
10175;DHT22;18221;38.704;0.152;2023-05-24T03:06:39;14.90;99.90
10175;DHT22;18221;38.704;0.152;2023-05-24T03:09:09;15.00;99.90
10175;DHT22;18221;38.704;0.152;2023-05-24T03:11:37;14.90;99.90
10175;DHT22;18221;38.704;0.152;2023-05-24T03:14:05;14.90;99.90
10175;DHT22;18221;38.704;0.152;2023-05-24T03:16:38;14.90;99.90
10175;DHT22;18221;38.704;0.152;2023-05-24T03:19:06;14.90;99.90
10175;DHT22;18221;38.704;0.152;2023-05-24T03:21:35;14.90;99.90
10175;DHT22;18221;38.704;0.152;2023-05-24T03:24:03;15.00;99.90
10175;DHT22;18221;38.704;0.152;2023-05-24T03:26:32;14.90;99.90
10175;DHT22;18221;38.704;0.152;2023-05-24T03:29:00;14.90;99.90
10175;DHT22;18221;38.704;0.152;2023-05-24T03:31:28;14.90;99.90
10175;DHT22;18221;38.704;0.152;2023-05-24T03:33:56;14.90;99.90
10175;DHT22;18221;38.704;0.152;2023-05-24T03:36:24;14.90;99.90
10175;DHT22;18221;38.704;0.152;2023-05-24T03:38:53;14.90;99.90
10175;DHT22;18221;38.704;0.152;2023-05-24T03:41:23;15.00;99.90
10175;DHT22;18221;38.704;0.152;2023-05-24T03:43:52;15.00;99.90
10175;DHT22;18221;38.704;0.152;2023-05-24T03:46:20;14.90;99.90
10175;DHT22;18221;38.704;0.152;2023-05-24T03:48:48;15.00;99.90
10175;DHT22;18221;38.704;0.152;2023-05-24T03:51:16;14.90;99.90
10175;DHT22;18221;38.704;0.152;2023-05-24T03:53:44;14.90;99.90
10175;DHT22;18221;38.704;0.152;2023-05-24T03:56:12;15.00;99.90
10175;DHT22;18221;38.704;0.152;2023-05-24T03:58:40;15.00;99.90
10175;DHT22;18221;38.704;0.152;2023-05-24T04:01:10;15.00;99.90
10175;DHT22;18221;38.704;0.152;2023-05-24T04:03:38;15.00;99.90
10175;DHT22;18221;38.704;0.152;2023-05-24T04:06:06;15.00;99.90
10175;DHT22;18221;38.704;0.152;2023-05-24T04:08:34;15.10;99.90
10175;DHT22;18221;38.704;0.152;2023-05-24T04:11:05;15.00;99.90
10175;DHT22;18221;38.704;0.152;2023-05-24T04:13:33;15.00;99.90
10175;DHT22;18221;38.704;0.152;2023-05-24T04:16:01;15.00;99.90
10175;DHT22;18221;38.704;0.152;2023-05-24T04:18:31;15.00;99.90
10175;DHT22;18221;38.704;0.152;2023-05-24T04:20:59;15.00;99.90
10175;DHT22;18221;38.704;0.152;2023-05-24T04:23:27;15.00;99.90
10175;DHT22;18221;38.704;0.152;2023-05-24T04:25:56;15.00;99.90
10175;DHT22;18221;38.704;0.152;2023-05-24T04:28:24;14.90;99.90
10175;DHT22;18221;38.704;0.152;2023-05-24T04:30:52;15.00;99.90
10175;DHT22;18221;38.704;0.152;2023-05-24T04:33:22;15.00;99.90
10175;DHT22;18221;38.704;0.152;2023-05-24T04:35:51;14.90;99.90
10175;DHT22;18221;38.704;0.152;2023-05-24T04:38:19;14.90;99.90
10175;DHT22;18221;38.704;0.152;2023-05-24T04:40:49;15.00;99.90
10175;DHT22;18221;38.704;0.152;2023-05-24T04:43:17;15.00;99.90
10175;DHT22;18221;38.704;0.152;2023-05-24T04:45:45;15.00;99.90
10175;DHT22;18221;38.704;0.152;2023-05-24T04:48:12;14.90;99.90
10175;DHT22;18221;38.704;0.152;2023-05-24T04:50:40;14.90;99.90
10175;DHT22;18221;38.704;0.152;2023-05-24T04:53:10;14.90;99.90
10175;DHT22;18221;38.704;0.152;2023-05-24T04:55:38;14.90;99.90
10175;DHT22;18221;38.704;0.152;2023-05-24T04:58:06;14.90;99.90
10175;DHT22;18221;38.704;0.152;2023-05-24T05:00:34;14.90;99.90
10175;DHT22;18221;38.704;0.152;2023-05-24T05:03:02;14.90;99.90
10175;DHT22;18221;38.704;0.152;2023-05-24T05:05:30;14.90;99.90
10175;DHT22;18221;38.704;0.152;2023-05-24T05:07:58;14.90;99.90
10175;DHT22;18221;38.704;0.152;2023-05-24T05:10:28;14.80;99.90
10175;DHT22;18221;38.704;0.152;2023-05-24T05:12:56;14.80;99.90
10175;DHT22;18221;38.704;0.152;2023-05-24T05:15:24;14.80;99.90
10175;DHT22;18221;38.704;0.152;2023-05-24T05:17:52;14.90;99.90
10175;DHT22;18221;38.704;0.152;2023-05-24T05:20:21;14.80;99.90
10175;DHT22;18221;38.704;0.152;2023-05-24T05:22:49;14.80;99.90
10175;DHT22;18221;38.704;0.152;2023-05-24T05:25:17;14.80;99.90
10175;DHT22;18221;38.704;0.152;2023-05-24T05:27:48;14.90;99.90
10175;DHT22;18221;38.704;0.152;2023-05-24T05:30:16;14.80;99.90
10175;DHT22;18221;38.704;0.152;2023-05-24T05:32:44;14.80;99.90
10175;DHT22;18221;38.704;0.152;2023-05-24T05:35:12;14.80;99.90
10175;DHT22;18221;38.704;0.152;2023-05-24T05:37:40;14.80;99.90
10175;DHT22;18221;38.704;0.152;2023-05-24T05:40:09;14.90;99.90
10175;DHT22;18221;38.704;0.152;2023-05-24T05:42:38;14.80;99.90
10175;DHT22;18221;38.704;0.152;2023-05-24T05:45:08;14.80;99.90
10175;DHT22;18221;38.704;0.152;2023-05-24T05:47:36;14.80;99.90
10175;DHT22;18221;38.704;0.152;2023-05-24T05:50:06;14.80;99.90
10175;DHT22;18221;38.704;0.152;2023-05-24T05:52:34;14.80;99.90
10175;DHT22;18221;38.704;0.152;2023-05-24T05:55:02;14.80;99.90
10175;DHT22;18221;38.704;0.152;2023-05-24T05:57:30;14.80;99.90
10175;DHT22;18221;38.704;0.152;2023-05-24T05:59:58;14.80;99.90
10175;DHT22;18221;38.704;0.152;2023-05-24T06:02:28;14.80;99.90
10175;DHT22;18221;38.704;0.152;2023-05-24T06:04:56;14.80;99.90
10175;DHT22;18221;38.704;0.152;2023-05-24T06:07:24;14.70;99.90
10175;DHT22;18221;38.704;0.152;2023-05-24T06:09:52;14.70;99.90
10175;DHT22;18221;38.704;0.152;2023-05-24T06:12:20;14.70;99.90
10175;DHT22;18221;38.704;0.152;2023-05-24T06:14:48;14.70;99.90
10175;DHT22;18221;38.704;0.152;2023-05-24T06:17:17;14.70;99.90
10175;DHT22;18221;38.704;0.152;2023-05-24T06:19:50;14.60;99.90
10175;DHT22;18221;38.704;0.152;2023-05-24T06:22:19;14.70;99.90
10175;DHT22;18221;38.704;0.152;2023-05-24T06:24:47;14.70;99.90
10175;DHT22;18221;38.704;0.152;2023-05-24T06:27:15;14.70;99.90
10175;DHT22;18221;38.704;0.152;2023-05-24T06:29:43;14.70;99.90
10175;DHT22;18221;38.704;0.152;2023-05-24T06:32:11;14.70;99.90
10175;DHT22;18221;38.704;0.152;2023-05-24T06:34:39;14.60;99.90
10175;DHT22;18221;38.704;0.152;2023-05-24T06:37:09;14.70;99.90
10175;DHT22;18221;38.704;0.152;2023-05-24T06:39:40;14.70;99.90
10175;DHT22;18221;38.704;0.152;2023-05-24T06:42:08;14.70;99.90
10175;DHT22;18221;38.704;0.152;2023-05-24T06:44:36;14.70;99.90
10175;DHT22;18221;38.704;0.152;2023-05-24T06:47:04;14.60;99.90
10175;DHT22;18221;38.704;0.152;2023-05-24T06:49:32;14.70;99.90
10175;DHT22;18221;38.704;0.152;2023-05-24T06:52:00;14.70;99.90
10175;DHT22;18221;38.704;0.152;2023-05-24T06:54:29;14.60;99.90
10175;DHT22;18221;38.704;0.152;2023-05-24T06:56:57;14.60;99.90
10175;DHT22;18221;38.704;0.152;2023-05-24T06:59:25;14.70;99.90
10175;DHT22;18221;38.704;0.152;2023-05-24T07:01:53;14.60;99.90
10175;DHT22;18221;38.704;0.152;2023-05-24T07:04:22;14.60;99.90
10175;DHT22;18221;38.704;0.152;2023-05-24T07:06:51;14.60;99.90
10175;DHT22;18221;38.704;0.152;2023-05-24T07:09:19;14.60;99.90
10175;DHT22;18221;38.704;0.152;2023-05-24T07:11:48;14.60;99.90
10175;DHT22;18221;38.704;0.152;2023-05-24T07:14:16;14.70;99.90
10175;DHT22;18221;38.704;0.152;2023-05-24T07:16:44;14.70;99.90
10175;DHT22;18221;38.704;0.152;2023-05-24T07:19:13;14.70;99.90
10175;DHT22;18221;38.704;0.152;2023-05-24T07:21:41;14.70;99.90
10175;DHT22;18221;38.704;0.152;2023-05-24T07:24:09;14.80;99.90
10175;DHT22;18221;38.704;0.152;2023-05-24T07:26:37;14.80;99.90
10175;DHT22;18221;38.704;0.152;2023-05-24T07:29:08;14.80;99.90
10175;DHT22;18221;38.704;0.152;2023-05-24T07:31:36;14.80;99.90
10175;DHT22;18221;38.704;0.152;2023-05-24T07:34:04;14.80;99.90
10175;DHT22;18221;38.704;0.152;2023-05-24T07:36:32;14.80;99.90
10175;DHT22;18221;38.704;0.152;2023-05-24T07:39:00;14.80;99.90
10175;DHT22;18221;38.704;0.152;2023-05-24T07:41:30;14.70;99.90
10175;DHT22;18221;38.704;0.152;2023-05-24T07:43:59;14.80;99.90
10175;DHT22;18221;38.704;0.152;2023-05-24T07:46:28;14.80;99.90
10175;DHT22;18221;38.704;0.152;2023-05-24T07:48:57;14.80;99.90
10175;DHT22;18221;38.704;0.152;2023-05-24T07:51:26;14.80;99.90
10175;DHT22;18221;38.704;0.152;2023-05-24T07:53:54;14.80;99.90
10175;DHT22;18221;38.704;0.152;2023-05-24T07:56:22;14.90;99.90
10175;DHT22;18221;38.704;0.152;2023-05-24T07:58:50;14.90;99.90
10175;DHT22;18221;38.704;0.152;2023-05-24T08:01:24;16.50;99.90
10175;DHT22;18221;38.704;0.152;2023-05-24T08:03:53;14.90;99.90
10175;DHT22;18221;38.704;0.152;2023-05-24T08:06:21;14.90;99.90
10175;DHT22;18221;38.704;0.152;2023-05-24T08:08:49;15.00;99.90
10175;DHT22;18221;38.704;0.152;2023-05-24T08:11:17;15.10;99.90
10175;DHT22;18221;38.704;0.152;2023-05-24T08:13:45;15.10;99.90
10175;DHT22;18221;38.704;0.152;2023-05-24T08:16:13;15.10;99.90
10175;DHT22;18221;38.704;0.152;2023-05-24T08:18:41;15.20;99.90
10175;DHT22;18221;38.704;0.152;2023-05-24T08:21:10;15.10;99.90
10175;DHT22;18221;38.704;0.152;2023-05-24T08:23:38;15.10;99.90
10175;DHT22;18221;38.704;0.152;2023-05-24T08:26:06;15.10;99.90
10175;DHT22;18221;38.704;0.152;2023-05-24T08:28:35;15.10;99.90
10175;DHT22;18221;38.704;0.152;2023-05-24T08:31:03;15.10;99.90
10175;DHT22;18221;38.704;0.152;2023-05-24T08:33:32;15.20;99.90
10175;DHT22;18221;38.704;0.152;2023-05-24T08:36:00;15.20;99.90
10175;DHT22;18221;38.704;0.152;2023-05-24T08:38:30;15.20;99.90
10175;DHT22;18221;38.704;0.152;2023-05-24T08:40:57;15.20;99.90
10175;DHT22;18221;38.704;0.152;2023-05-24T08:43:26;15.20;99.90
10175;DHT22;18221;38.704;0.152;2023-05-24T08:45:57;15.20;99.90
10175;DHT22;18221;38.704;0.152;2023-05-24T08:48:27;15.20;99.90
10175;DHT22;18221;38.704;0.152;2023-05-24T08:50:56;15.20;99.90
10175;DHT22;18221;38.704;0.152;2023-05-24T08:53:25;15.20;99.90
10175;DHT22;18221;38.704;0.152;2023-05-24T08:55:55;15.30;99.90
10175;DHT22;18221;38.704;0.152;2023-05-24T08:58:24;15.30;99.90
10175;DHT22;18221;38.704;0.152;2023-05-24T09:00:52;15.30;99.90
10175;DHT22;18221;38.704;0.152;2023-05-24T09:03:21;15.30;99.90
10175;DHT22;18221;38.704;0.152;2023-05-24T09:05:50;15.40;99.90
10175;DHT22;18221;38.704;0.152;2023-05-24T09:08:19;15.30;99.90
10175;DHT22;18221;38.704;0.152;2023-05-24T09:10:48;15.30;99.90
10175;DHT22;18221;38.704;0.152;2023-05-24T09:13:18;15.30;99.90
10175;DHT22;18221;38.704;0.152;2023-05-24T09:15:49;15.30;99.90
10175;DHT22;18221;38.704;0.152;2023-05-24T09:18:17;15.30;99.90
10175;DHT22;18221;38.704;0.152;2023-05-24T09:20:45;15.30;99.90
10175;DHT22;18221;38.704;0.152;2023-05-24T09:23:14;15.20;99.90
10175;DHT22;18221;38.704;0.152;2023-05-24T09:25:43;15.20;99.90
10175;DHT22;18221;38.704;0.152;2023-05-24T09:28:13;15.30;99.90
10175;DHT22;18221;38.704;0.152;2023-05-24T09:30:45;15.30;99.90
10175;DHT22;18221;38.704;0.152;2023-05-24T09:33:28;15.20;99.90
10175;DHT22;18221;38.704;0.152;2023-05-24T09:35:58;15.20;99.90
10175;DHT22;18221;38.704;0.152;2023-05-24T09:38:26;15.20;99.90
10175;DHT22;18221;38.704;0.152;2023-05-24T09:41:00;15.20;99.90
10175;DHT22;18221;38.704;0.152;2023-05-24T09:43:30;15.20;99.90
10175;DHT22;18221;38.704;0.152;2023-05-24T09:46:02;15.20;99.90
10175;DHT22;18221;38.704;0.152;2023-05-24T09:48:30;15.20;99.90
10175;DHT22;18221;38.704;0.152;2023-05-24T09:51:02;15.30;99.90
10175;DHT22;18221;38.704;0.152;2023-05-24T09:53:31;15.30;99.90
10175;DHT22;18221;38.704;0.152;2023-05-24T09:56:02;15.20;99.90
10175;DHT22;18221;38.704;0.152;2023-05-24T09:58:32;15.20;99.90
10175;DHT22;18221;38.704;0.152;2023-05-24T10:01:05;15.20;99.90
10175;DHT22;18221;38.704;0.152;2023-05-24T10:03:35;15.20;99.90
10175;DHT22;18221;38.704;0.152;2023-05-24T10:06:05;15.20;99.90
10175;DHT22;18221;38.704;0.152;2023-05-24T10:08:36;15.20;99.90
10175;DHT22;18221;38.704;0.152;2023-05-24T10:11:05;15.20;99.90
10175;DHT22;18221;38.704;0.152;2023-05-24T10:13:33;15.20;99.90
10175;DHT22;18221;38.704;0.152;2023-05-24T10:16:04;15.20;99.90
10175;DHT22;18221;38.704;0.152;2023-05-24T10:18:33;15.20;99.90
10175;DHT22;18221;38.704;0.152;2023-05-24T10:21:05;15.20;99.90
10175;DHT22;18221;38.704;0.152;2023-05-24T10:23:37;15.20;99.90
10175;DHT22;18221;38.704;0.152;2023-05-24T10:26:07;15.20;99.90
10175;DHT22;18221;38.704;0.152;2023-05-24T10:28:40;15.20;99.90
10175;DHT22;18221;38.704;0.152;2023-05-24T10:31:16;15.20;99.90
10175;DHT22;18221;38.704;0.152;2023-05-24T10:33:49;15.30;99.90
10175;DHT22;18221;38.704;0.152;2023-05-24T10:36:18;15.40;99.90
10175;DHT22;18221;38.704;0.152;2023-05-24T10:46:34;15.40;99.90
10175;DHT22;18221;38.704;0.152;2023-05-24T10:49:06;15.40;99.90
10175;DHT22;18221;38.704;0.152;2023-05-24T11:07:09;15.40;99.90
10175;DHT22;18221;38.704;0.152;2023-05-24T11:09:38;15.40;99.90
10175;DHT22;18221;38.704;0.152;2023-05-24T11:12:14;15.40;99.90
10175;DHT22;18221;38.704;0.152;2023-05-24T11:15:56;15.60;99.90
10175;DHT22;18221;38.704;0.152;2023-05-24T11:18:25;15.40;99.90
10175;DHT22;18221;38.704;0.152;2023-05-24T11:20:53;15.40;99.90
10175;DHT22;18221;38.704;0.152;2023-05-24T11:23:22;15.40;99.90
10175;DHT22;18221;38.704;0.152;2023-05-24T11:25:51;15.40;99.90
10175;DHT22;18221;38.704;0.152;2023-05-24T11:28:20;15.40;99.90
10175;DHT22;18221;38.704;0.152;2023-05-24T11:30:48;15.40;99.90
10175;DHT22;18221;38.704;0.152;2023-05-24T11:33:19;15.40;99.90
10175;DHT22;18221;38.704;0.152;2023-05-24T11:35:50;15.40;99.90
10175;DHT22;18221;38.704;0.152;2023-05-24T11:38:19;15.40;99.90
10175;DHT22;18221;38.704;0.152;2023-05-24T11:40:48;15.40;99.90
10175;DHT22;18221;38.704;0.152;2023-05-24T11:43:18;15.40;99.90
10175;DHT22;18221;38.704;0.152;2023-05-24T11:45:48;15.50;99.90
10175;DHT22;18221;38.704;0.152;2023-05-24T11:48:18;15.40;99.90
10175;DHT22;18221;38.704;0.152;2023-05-24T11:50:47;15.40;99.90
10175;DHT22;18221;38.704;0.152;2023-05-24T11:53:18;15.40;99.90
10175;DHT22;18221;38.704;0.152;2023-05-24T11:55:46;15.50;99.90
10175;DHT22;18221;38.704;0.152;2023-05-24T11:58:21;15.40;99.90
10175;DHT22;18221;38.704;0.152;2023-05-24T12:00:50;15.50;99.90
10175;DHT22;18221;38.704;0.152;2023-05-24T12:03:20;15.50;99.90
10175;DHT22;18221;38.704;0.152;2023-05-24T12:05:48;15.50;99.90
10175;DHT22;18221;38.704;0.152;2023-05-24T12:08:17;15.50;99.90
10175;DHT22;18221;38.704;0.152;2023-05-24T12:10:48;15.40;99.90
10175;DHT22;18221;38.704;0.152;2023-05-24T12:13:21;15.40;99.90
10175;DHT22;18221;38.704;0.152;2023-05-24T12:15:52;15.50;99.90
10175;DHT22;18221;38.704;0.152;2023-05-24T12:18:23;15.50;99.90
10175;DHT22;18221;38.704;0.152;2023-05-24T12:20:52;15.40;99.90
10175;DHT22;18221;38.704;0.152;2023-05-24T12:23:22;15.50;99.90
10175;DHT22;18221;38.704;0.152;2023-05-24T12:25:57;15.50;99.90
10175;DHT22;18221;38.704;0.152;2023-05-24T12:28:26;15.50;99.90
10175;DHT22;18221;38.704;0.152;2023-05-24T12:30:54;15.60;99.90
10175;DHT22;18221;38.704;0.152;2023-05-24T12:33:25;15.60;99.90
10175;DHT22;18221;38.704;0.152;2023-05-24T12:35:53;15.70;99.90
10175;DHT22;18221;38.704;0.152;2023-05-24T12:38:23;15.70;99.90
10175;DHT22;18221;38.704;0.152;2023-05-24T12:40:52;15.70;99.90
10175;DHT22;18221;38.704;0.152;2023-05-24T12:43:21;15.80;99.90
10175;DHT22;18221;38.704;0.152;2023-05-24T12:45:49;15.80;99.90
10175;DHT22;18221;38.704;0.152;2023-05-24T12:48:17;15.80;99.90
10175;DHT22;18221;38.704;0.152;2023-05-24T12:50:47;15.80;99.90
10175;DHT22;18221;38.704;0.152;2023-05-24T12:53:16;15.80;99.90
10175;DHT22;18221;38.704;0.152;2023-05-24T12:55:45;15.60;99.90
10175;DHT22;18221;38.704;0.152;2023-05-24T12:58:12;15.60;99.90
10175;DHT22;18221;38.704;0.152;2023-05-24T13:00:42;15.70;99.90
10175;DHT22;18221;38.704;0.152;2023-05-24T13:03:15;15.90;99.90
10175;DHT22;18221;38.704;0.152;2023-05-24T13:05:43;16.00;99.90
10175;DHT22;18221;38.704;0.152;2023-05-24T13:08:13;16.10;99.90
10175;DHT22;18221;38.704;0.152;2023-05-24T13:10:41;17.40;99.90
10175;DHT22;18221;38.704;0.152;2023-05-24T13:13:09;16.30;99.90
10175;DHT22;18221;38.704;0.152;2023-05-24T13:15:37;16.30;99.90
10175;DHT22;18221;38.704;0.152;2023-05-24T13:18:06;16.40;99.90
10175;DHT22;18221;38.704;0.152;2023-05-24T13:20:34;16.60;99.90
10175;DHT22;18221;38.704;0.152;2023-05-24T13:23:03;16.70;99.90
10175;DHT22;18221;38.704;0.152;2023-05-24T13:25:32;16.80;99.90
10175;DHT22;18221;38.704;0.152;2023-05-24T13:28:00;16.80;99.90
10175;DHT22;18221;38.704;0.152;2023-05-24T13:30:28;16.70;99.90
10175;DHT22;18221;38.704;0.152;2023-05-24T13:32:59;16.80;99.90
10175;DHT22;18221;38.704;0.152;2023-05-24T13:35:28;16.80;99.90
10175;DHT22;18221;38.704;0.152;2023-05-24T13:37:56;16.80;99.90
10175;DHT22;18221;38.704;0.152;2023-05-24T13:40:24;16.80;99.90
10175;DHT22;18221;38.704;0.152;2023-05-24T13:42:54;16.80;99.90
10175;DHT22;18221;38.704;0.152;2023-05-24T13:45:23;16.60;99.90
10175;DHT22;18221;38.704;0.152;2023-05-24T13:47:51;16.60;99.90
10175;DHT22;18221;38.704;0.152;2023-05-24T13:50:23;16.60;99.90
10175;DHT22;18221;38.704;0.152;2023-05-24T13:52:51;16.70;99.90
10175;DHT22;18221;38.704;0.152;2023-05-24T13:55:20;16.70;99.90
10175;DHT22;18221;38.704;0.152;2023-05-24T13:57:48;16.70;99.90
10175;DHT22;18221;38.704;0.152;2023-05-24T14:00:18;16.70;99.90
10175;DHT22;18221;38.704;0.152;2023-05-24T14:02:47;16.80;99.90
10175;DHT22;18221;38.704;0.152;2023-05-24T14:05:15;14.70;99.90
10175;DHT22;18221;38.704;0.152;2023-05-24T14:07:43;17.10;99.90
10175;DHT22;18221;38.704;0.152;2023-05-24T14:10:12;17.20;99.90
10175;DHT22;18221;38.704;0.152;2023-05-24T14:12:41;17.30;99.90
10175;DHT22;18221;38.704;0.152;2023-05-24T14:15:09;17.40;99.90
10175;DHT22;18221;38.704;0.152;2023-05-24T14:17:40;17.30;99.90
10175;DHT22;18221;38.704;0.152;2023-05-24T14:20:08;17.30;99.90
10175;DHT22;18221;38.704;0.152;2023-05-24T14:22:37;17.50;99.90
10175;DHT22;18221;38.704;0.152;2023-05-24T14:25:06;17.70;99.90
10175;DHT22;18221;38.704;0.152;2023-05-24T14:27:35;17.60;99.90
10175;DHT22;18221;38.704;0.152;2023-05-24T14:30:04;17.50;99.90
10175;DHT22;18221;38.704;0.152;2023-05-24T14:32:33;17.60;99.90
10175;DHT22;18221;38.704;0.152;2023-05-24T14:35:03;17.60;99.90
10175;DHT22;18221;38.704;0.152;2023-05-24T14:37:31;17.60;99.90
10175;DHT22;18221;38.704;0.152;2023-05-24T14:39:59;17.50;99.90
10175;DHT22;18221;38.704;0.152;2023-05-24T14:42:29;17.60;99.90
10175;DHT22;18221;38.704;0.152;2023-05-24T14:44:57;17.80;99.90
10175;DHT22;18221;38.704;0.152;2023-05-24T14:47:25;17.90;99.90
10175;DHT22;18221;38.704;0.152;2023-05-24T14:49:53;17.90;99.90
10175;DHT22;18221;38.704;0.152;2023-05-24T14:52:22;17.80;99.90
10175;DHT22;18221;38.704;0.152;2023-05-24T14:54:50;17.90;99.90
10175;DHT22;18221;38.704;0.152;2023-05-24T14:57:18;17.90;99.90
10175;DHT22;18221;38.704;0.152;2023-05-24T14:59:46;17.60;99.90
10175;DHT22;18221;38.704;0.152;2023-05-24T15:02:14;17.60;99.90
10175;DHT22;18221;38.704;0.152;2023-05-24T15:04:42;17.50;99.90
10175;DHT22;18221;38.704;0.152;2023-05-24T15:07:10;17.50;99.90
10175;DHT22;18221;38.704;0.152;2023-05-24T15:09:40;17.50;99.90
10175;DHT22;18221;38.704;0.152;2023-05-24T15:12:08;17.50;99.90
10175;DHT22;18221;38.704;0.152;2023-05-24T15:14:36;17.60;99.90
10175;DHT22;18221;38.704;0.152;2023-05-24T15:17:04;17.60;99.90
10175;DHT22;18221;38.704;0.152;2023-05-24T15:19:32;17.60;99.90
10175;DHT22;18221;38.704;0.152;2023-05-24T15:22:00;17.60;99.90
10175;DHT22;18221;38.704;0.152;2023-05-24T15:24:28;17.60;99.90
10175;DHT22;18221;38.704;0.152;2023-05-24T15:26:57;17.70;99.90
10175;DHT22;18221;38.704;0.152;2023-05-24T15:29:26;17.50;99.90
10175;DHT22;18221;38.704;0.152;2023-05-24T15:31:54;17.40;99.90
10175;DHT22;18221;38.704;0.152;2023-05-24T15:34:26;17.40;99.90
10175;DHT22;18221;38.704;0.152;2023-05-24T15:36:54;17.40;99.90
10175;DHT22;18221;38.704;0.152;2023-05-24T15:39:22;17.30;99.90
10175;DHT22;18221;38.704;0.152;2023-05-24T15:41:50;17.30;99.90
10175;DHT22;18221;38.704;0.152;2023-05-24T15:44:20;17.30;99.90
10175;DHT22;18221;38.704;0.152;2023-05-24T15:46:48;17.20;99.90
10175;DHT22;18221;38.704;0.152;2023-05-24T15:49:16;17.20;99.90
10175;DHT22;18221;38.704;0.152;2023-05-24T15:51:44;17.30;99.90
10175;DHT22;18221;38.704;0.152;2023-05-24T15:54:12;17.40;99.90
10175;DHT22;18221;38.704;0.152;2023-05-24T15:56:41;17.50;99.90
10175;DHT22;18221;38.704;0.152;2023-05-24T15:59:09;17.50;99.90
10175;DHT22;18221;38.704;0.152;2023-05-24T16:01:38;17.50;99.90
10175;DHT22;18221;38.704;0.152;2023-05-24T16:04:07;17.50;99.90
10175;DHT22;18221;38.704;0.152;2023-05-24T16:06:36;17.50;99.90
10175;DHT22;18221;38.704;0.152;2023-05-24T16:09:06;17.50;99.90
10175;DHT22;18221;38.704;0.152;2023-05-24T16:11:34;17.30;99.90
10175;DHT22;18221;38.704;0.152;2023-05-24T16:14:02;17.30;99.90
10175;DHT22;18221;38.704;0.152;2023-05-24T16:16:31;17.30;99.90
10175;DHT22;18221;38.704;0.152;2023-05-24T16:19:01;17.20;99.90